Time;durP1;ratioP1;P1;durP2;ratioP2;P2;SDS_P1;SDS_P2;PMS_P1;PMS_P2;Temp;Humidity;BMP_temperature;BMP_pressure;BME280_temperature;BME280_humidity;BME280_pressure;Samples;Min_cycle;Max_cycle;Signal;HPM_P1;HPM_P2
2021/06/21 00:01:01;;;;;;;23.80;4.00;;;17.30;99.90;;;;;;5096662;28;20593;-66
2021/06/21 00:03:27;;;;;;;10.47;3.63;;;17.30;99.90;;;;;;5096434;28;20613;-66
2021/06/21 00:05:53;;;;;;;8.27;3.43;;;17.30;99.90;;;;;;5096597;28;20665;-66
2021/06/21 00:08:20;;;;;;;10.20;3.60;;;17.20;99.90;;;;;;5096619;28;20628;-66
2021/06/21 00:10:46;;;;;;;12.63;4.47;;;17.20;99.90;;;;;;5095876;28;21136;-66
2021/06/21 00:13:12;;;;;;;9.03;3.30;;;17.20;99.90;;;;;;5096523;28;20589;-66
2021/06/21 00:15:39;;;;;;;12.63;3.43;;;17.10;99.90;;;;;;5096370;28;20980;-67
2021/06/21 00:18:05;;;;;;;13.97;3.57;;;17.20;99.90;;;;;;5096409;28;20978;-66
2021/06/21 00:20:32;;;;;;;12.80;4.27;;;17.10;99.90;;;;;;5094602;28;20624;-67
2021/06/21 00:22:58;;;;;;;10.20;3.47;;;17.20;99.90;;;;;;5096255;28;20610;-66
2021/06/21 00:25:25;;;;;;;18.50;3.47;;;17.20;99.90;;;;;;5096590;28;20623;-66
2021/06/21 00:27:51;;;;;;;8.90;4.20;;;17.10;99.90;;;;;;5095904;28;20995;-66
2021/06/21 00:30:19;;;;;;;11.40;3.90;;;17.10;99.90;;;;;;5096078;28;20791;-66
2021/06/21 00:32:47;;;;;;;19.33;4.17;;;17.10;99.90;;;;;;5095885;28;20621;-66
2021/06/21 00:35:14;;;;;;;8.17;4.20;;;17.10;99.90;;;;;;5096182;28;20589;-66
2021/06/21 00:37:41;;;;;;;13.97;4.90;;;17.00;99.90;;;;;;5095904;28;21012;-66
2021/06/21 00:40:09;;;;;;;18.23;3.40;;;17.00;99.90;;;;;;5095960;28;21163;-66
2021/06/21 00:42:37;;;;;;;19.07;3.50;;;17.00;99.90;;;;;;5095865;28;20698;-66
2021/06/21 00:45:04;;;;;;;8.97;3.90;;;17.00;99.90;;;;;;5096068;28;20708;-66
2021/06/21 00:47:30;;;;;;;14.63;4.53;;;17.00;99.90;;;;;;5095806;28;20637;-66
2021/06/21 00:49:56;;;;;;;8.63;3.80;;;17.00;99.90;;;;;;5105196;28;20696;-66
2021/06/21 00:52:23;;;;;;;11.80;4.30;;;17.00;99.90;;;;;;5116092;28;20600;-66
2021/06/21 00:54:59;;;;;;;10.50;5.00;;;17.00;99.90;;;;;;5116302;28;21134;-66
2021/06/21 00:57:31;;;;;;;10.77;4.40;;;17.10;99.90;;;;;;5115548;28;20687;-66
2021/06/21 01:00:01;;;;;;;12.87;4.03;;;17.10;99.90;;;;;;5115092;28;20628;-66
2021/06/21 01:02:28;;;;;;;11.57;4.50;;;17.00;99.90;;;;;;5098099;28;20596;-66
2021/06/21 01:04:55;;;;;;;22.97;4.67;;;17.10;99.90;;;;;;5115819;28;20602;-66
2021/06/21 01:07:22;;;;;;;13.90;4.30;;;17.10;99.90;;;;;;5115722;28;21182;-66
2021/06/21 01:09:51;;;;;;;15.80;4.33;;;17.10;99.90;;;;;;5115593;28;20599;-66
2021/06/21 01:12:45;;;;;;;10.80;4.23;;;17.10;99.90;;;;;;5115136;28;20632;-66
2021/06/21 01:15:13;;;;;;;16.20;4.90;;;17.10;99.90;;;;;;5115667;28;20890;-66
2021/06/21 01:17:50;;;;;;;8.13;4.57;;;17.10;99.90;;;;;;5115507;28;20603;-66
2021/06/21 01:20:34;;;;;;;9.93;4.53;;;17.00;99.90;;;;;;5115515;28;21113;-66
2021/06/21 01:23:40;;;;;;;15.60;5.00;;;17.00;99.90;;;;;;5115832;28;20709;-66
2021/06/21 01:26:29;;;;;;;13.23;5.60;;;17.00;99.90;;;;;;5115566;28;20557;-66
2021/06/21 01:28:57;;;;;;;11.03;5.87;;;17.00;99.90;;;;;;5115221;28;21092;-66
2021/06/21 01:31:40;;;;;;;15.17;4.90;;;17.00;99.90;;;;;;5114891;28;20620;-66
2021/06/21 01:34:06;;;;;;;10.87;4.50;;;17.00;99.90;;;;;;5115089;28;20561;-66
2021/06/21 01:36:34;;;;;;;10.90;4.67;;;17.00;99.90;;;;;;5115231;28;20963;-66
2021/06/21 01:39:01;;;;;;;17.17;4.10;;;17.10;99.90;;;;;;5115026;28;20608;-66
2021/06/21 01:41:38;;;;;;;17.93;4.10;;;17.00;99.90;;;;;;5114957;28;20612;-66
2021/06/21 01:44:06;;;;;;;13.60;4.50;;;17.00;99.90;;;;;;5115227;28;20555;-66
2021/06/21 01:46:34;;;;;;;16.10;5.07;;;17.10;99.90;;;;;;5114938;28;20580;-66
2021/06/21 01:49:08;;;;;;;14.23;5.47;;;17.10;99.90;;;;;;5114529;28;21001;-66
2021/06/21 01:51:37;;;;;;;21.67;5.80;;;17.00;99.90;;;;;;5115082;28;20555;-66
2021/06/21 01:54:05;;;;;;;12.87;5.53;;;17.00;99.90;;;;;;5115249;28;20707;-66
2021/06/21 01:56:37;;;;;;;17.20;5.23;;;16.90;99.90;;;;;;5114772;28;21122;-66
2021/06/21 01:59:05;;;;;;;12.13;5.40;;;17.00;99.90;;;;;;5114461;28;20619;-66
2021/06/21 02:01:33;;;;;;;20.40;6.87;;;17.00;99.90;;;;;;5114596;28;20612;-66
2021/06/21 02:04:04;;;;;;;25.73;8.47;;;16.90;99.90;;;;;;5114722;28;20581;-66
2021/06/21 02:06:32;;;;;;;17.03;7.40;;;16.90;99.90;;;;;;5114629;28;20568;-66
2021/06/21 02:09:01;;;;;;;15.33;7.07;;;17.00;99.90;;;;;;5114263;28;20979;-66
2021/06/21 02:11:28;;;;;;;13.73;5.63;;;16.90;99.90;;;;;;5113880;28;20617;-66
2021/06/21 02:13:55;;;;;;;11.10;5.27;;;16.90;99.90;;;;;;5114292;28;21157;-66
2021/06/21 02:16:23;;;;;;;22.87;7.53;;;16.90;99.90;;;;;;5114298;28;20624;-66
2021/06/21 02:18:51;;;;;;;17.27;7.90;;;16.80;99.90;;;;;;5114293;28;20603;-66
2021/06/21 02:21:19;;;;;;;12.70;5.63;;;16.80;99.90;;;;;;5113937;28;20644;-66
2021/06/21 02:23:46;;;;;;;17.37;5.97;;;16.80;99.90;;;;;;5114315;28;21193;-66
2021/06/21 02:26:14;;;;;;;12.90;5.43;;;16.80;99.90;;;;;;5114273;28;20592;-66
2021/06/21 02:28:41;;;;;;;19.63;6.00;;;16.80;99.90;;;;;;5095602;28;20660;-66
2021/06/21 02:31:08;;;;;;;13.33;6.33;;;16.80;99.90;;;;;;5114186;28;20599;-69
2021/06/21 02:33:35;;;;;;;22.37;7.03;;;16.80;99.90;;;;;;5114170;28;20591;-66
2021/06/21 02:36:03;;;;;;;10.33;5.50;;;16.80;99.90;;;;;;5113934;28;20729;-66
2021/06/21 02:38:29;;;;;;;14.57;6.37;;;16.80;99.90;;;;;;5114064;28;20603;-66
2021/06/21 02:40:56;;;;;;;14.07;6.50;;;16.80;99.90;;;;;;5113908;28;20639;-66
2021/06/21 02:43:23;;;;;;;13.73;6.20;;;16.70;99.90;;;;;;5114024;28;20596;-67
2021/06/21 02:45:50;;;;;;;15.23;5.83;;;16.70;99.90;;;;;;5113970;28;20948;-66
2021/06/21 02:48:18;;;;;;;26.90;6.77;;;16.70;99.90;;;;;;5113870;28;20624;-66
2021/06/21 02:50:48;;;;;;;11.00;5.80;;;16.70;99.90;;;;;;5113632;28;21174;-66
2021/06/21 02:53:35;;;;;;;11.03;6.50;;;16.70;99.90;;;;;;5113041;28;20615;-66
2021/06/21 02:56:11;;;;;;;16.00;6.47;;;16.80;99.90;;;;;;5113858;28;20552;-66
2021/06/21 02:58:45;;;;;;;18.83;5.67;;;16.80;99.90;;;;;;5113794;28;21087;-67
2021/06/21 03:01:14;;;;;;;15.20;5.70;;;16.80;99.90;;;;;;5113081;28;20700;-66
2021/06/21 03:03:46;;;;;;;14.43;5.63;;;16.80;99.90;;;;;;5112678;28;20638;-66
2021/06/21 03:06:15;;;;;;;13.60;6.47;;;16.80;99.90;;;;;;5113162;28;20592;-66
2021/06/21 03:08:42;;;;;;;16.00;6.83;;;16.80;99.90;;;;;;5112968;28;20697;-66
2021/06/21 03:11:13;;;;;;;17.87;7.80;;;16.80;99.90;;;;;;5113200;28;20616;-66
2021/06/21 03:13:40;;;;;;;14.93;8.23;;;16.80;99.90;;;;;;5113090;28;20591;-66
2021/06/21 03:16:08;;;;;;;15.20;7.80;;;16.80;99.90;;;;;;5113422;28;20615;-66
2021/06/21 03:18:36;;;;;;;14.80;8.43;;;16.80;99.90;;;;;;5113517;28;20607;-66
2021/06/21 03:21:03;;;;;;;10.03;9.03;;;16.80;99.90;;;;;;5113250;28;20618;-66
2021/06/21 03:23:32;;;;;;;17.73;9.40;;;16.80;99.90;;;;;;5115040;28;20689;-66
2021/06/21 03:26:03;;;;;;;15.33;9.70;;;16.80;99.90;;;;;;5117619;28;20699;-66
2021/06/21 03:28:31;;;;;;;16.07;13.80;;;16.80;99.90;;;;;;5117493;28;20593;-66
2021/06/21 03:31:00;;;;;;;29.47;13.67;;;16.80;99.90;;;;;;5117901;28;21149;-66
2021/06/21 03:33:29;;;;;;;28.50;14.73;;;16.80;99.90;;;;;;5117730;28;20611;-66
2021/06/21 03:35:56;;;;;;;24.63;14.20;;;16.80;99.90;;;;;;5117279;28;20598;-67
2021/06/21 03:38:24;;;;;;;25.73;15.90;;;16.80;99.90;;;;;;5082071;28;20716;-66
2021/06/21 03:40:52;;;;;;;27.07;17.83;;;16.80;99.90;;;;;;5117434;28;20616;-66
2021/06/21 03:43:21;;;;;;;22.17;16.27;;;16.70;99.90;;;;;;5117510;28;20599;-67
2021/06/21 03:45:49;;;;;;;19.67;15.50;;;16.70;99.90;;;;;;5117374;28;20598;-66
2021/06/21 03:48:16;;;;;;;26.73;16.53;;;16.70;99.90;;;;;;5117344;28;20643;-66
2021/06/21 03:50:43;;;;;;;22.80;17.43;;;16.70;99.90;;;;;;5117074;28;21073;-66
2021/06/21 03:53:10;;;;;;;26.43;14.67;;;16.70;99.90;;;;;;5117043;28;20596;-66
2021/06/21 03:55:37;;;;;;;20.97;14.03;;;16.70;99.90;;;;;;5117134;28;20596;-66
2021/06/21 03:58:05;;;;;;;25.00;16.30;;;16.70;99.90;;;;;;5116863;28;21146;-66
2021/06/21 04:00:33;;;;;;;22.00;13.93;;;16.80;99.90;;;;;;5117272;28;20657;-66
2021/06/21 04:03:00;;;;;;;19.20;13.93;;;16.80;99.90;;;;;;5117149;28;20650;-66
2021/06/21 04:05:27;;;;;;;23.20;13.57;;;16.70;99.90;;;;;;5117253;28;20612;-66
2021/06/21 04:07:53;;;;;;;26.40;13.77;;;16.80;99.90;;;;;;5116892;28;21079;-66
2021/06/21 04:10:29;;;;;;;16.30;11.30;;;16.70;99.90;;;;;;5116013;28;20615;-66
2021/06/21 04:12:55;;;;;;;19.60;11.30;;;16.70;99.90;;;;;;5116855;28;20603;-66
2021/06/21 04:15:33;;;;;;;12.93;10.27;;;16.80;99.90;;;;;;5116847;28;20592;-66
2021/06/21 04:18:02;;;;;;;19.90;9.00;;;16.80;99.90;;;;;;5116718;28;20651;-66
2021/06/21 04:20:29;;;;;;;11.30;8.37;;;16.80;99.90;;;;;;5116355;28;20631;-66
2021/06/21 04:22:56;;;;;;;20.80;8.70;;;16.80;99.90;;;;;;5116756;28;20683;-67
2021/06/21 04:25:23;;;;;;;17.80;8.07;;;16.80;99.90;;;;;;5116641;28;20600;-66
2021/06/21 04:27:50;;;;;;;17.97;8.07;;;16.80;99.90;;;;;;5115680;28;20646;-66
2021/06/21 04:30:19;;;;;;;14.80;7.53;;;16.80;99.90;;;;;;5116656;28;21146;-66
2021/06/21 04:32:46;;;;;;;22.13;9.70;;;16.90;99.90;;;;;;5097819;28;21271;-67
2021/06/21 04:35:15;;;;;;;10.93;6.27;;;16.90;99.90;;;;;;5115414;28;20601;-66
2021/06/21 04:37:42;;;;;;;8.37;5.47;;;16.90;99.90;;;;;;5116453;28;20595;-66
2021/06/21 04:40:11;;;;;;;11.70;5.60;;;17.00;99.90;;;;;;5116181;28;20618;-66
2021/06/21 04:42:38;;;;;;;16.30;5.17;;;17.00;99.90;;;;;;5098487;28;20613;-66
2021/06/21 04:45:07;;;;;;;13.00;4.90;;;17.10;99.90;;;;;;5115916;28;20952;-67
2021/06/21 04:47:33;;;;;;;8.10;5.13;;;17.30;99.90;;;;;;5116103;28;20618;-66
2021/06/21 04:50:05;;;;;;;10.30;4.77;;;17.30;99.90;;;;;;5115274;28;20663;-66
2021/06/21 04:52:36;;;;;;;13.20;5.40;;;17.30;99.90;;;;;;5115739;28;21111;-67
2021/06/21 04:55:04;;;;;;;11.60;4.70;;;17.40;99.90;;;;;;5115983;28;20831;-66
2021/06/21 04:57:33;;;;;;;14.57;6.90;;;17.40;99.90;;;;;;5116049;28;20604;-66
2021/06/21 05:00:00;;;;;;;14.47;5.37;;;17.40;99.90;;;;;;5115754;28;20636;-66
2021/06/21 05:02:26;;;;;;;20.03;5.50;;;17.50;99.90;;;;;;5116022;28;20684;-66
2021/06/21 05:04:53;;;;;;;9.90;4.67;;;17.60;99.90;;;;;;5116273;28;20600;-67
2021/06/21 05:07:19;;;;;;;12.93;4.93;;;17.60;99.90;;;;;;5115893;28;20934;-67
2021/06/21 05:09:48;;;;;;;10.73;5.33;;;17.60;99.90;;;;;;5115749;28;20635;-67
2021/06/21 05:12:15;;;;;;;11.10;4.83;;;17.60;99.90;;;;;;5115761;28;20592;-66
2021/06/21 05:14:41;;;;;;;12.80;5.03;;;17.70;99.90;;;;;;5115850;28;20592;-66
2021/06/21 05:17:08;;;;;;;8.80;4.67;;;17.70;99.90;;;;;;5115751;28;20604;-67
2021/06/21 05:19:35;;;;;;;12.40;5.20;;;17.80;99.90;;;;;;5117215;28;20632;-65
2021/06/21 05:22:02;;;;;;;13.40;6.40;;;17.80;99.90;;;;;;5115026;28;20620;-65
2021/06/21 05:24:29;;;;;;;9.00;4.37;;;17.90;99.90;;;;;;5115180;28;20602;-65
2021/06/21 05:26:55;;;;;;;19.43;5.67;;;17.90;99.90;;;;;;5115517;28;20665;-66
2021/06/21 05:29:22;;;;;;;8.83;5.40;;;17.90;99.90;;;;;;5114870;28;20814;-66
2021/06/21 05:31:49;;;;;;;9.93;4.93;;;17.90;99.90;;;;;;5115399;28;20592;-65
2021/06/21 05:34:15;;;;;;;13.50;4.70;;;18.00;99.90;;;;;;5115342;28;20623;-66
2021/06/21 05:36:42;;;;;;;7.53;4.97;;;18.00;99.90;;;;;;5114684;28;20612;-66
2021/06/21 05:39:09;;;;;;;10.73;5.87;;;18.00;99.90;;;;;;5115146;28;20601;-66
2021/06/21 05:41:36;;;;;;;21.80;6.37;;;18.20;99.90;;;;;;5114900;28;20971;-65
2021/06/21 05:44:03;;;;;;;14.50;5.33;;;18.30;99.90;;;;;;5114944;28;20611;-66
2021/06/21 05:46:30;;;;;;;9.00;5.00;;;18.30;99.90;;;;;;5115057;28;20597;-66
2021/06/21 05:48:56;;;;;;;12.20;6.50;;;18.30;99.90;;;;;;5114675;28;20635;-66
2021/06/21 05:51:22;;;;;;;12.23;6.37;;;18.60;99.90;;;;;;5115201;28;20616;-65
2021/06/21 05:53:49;;;;;;;8.13;4.70;;;18.70;99.90;;;;;;5114715;28;20597;-65
2021/06/21 05:56:15;;;;;;;13.03;4.80;;;18.60;99.90;;;;;;5114774;28;20611;-65
2021/06/21 05:58:42;;;;;;;13.67;5.03;;;18.70;99.90;;;;;;5114736;28;20629;-66
2021/06/21 06:01:08;;;;;;;10.77;4.60;;;18.80;99.90;;;;;;5114782;28;20604;-65
2021/06/21 06:03:34;;;;;;;11.50;4.43;;;18.80;99.90;;;;;;5114932;28;20607;-66
2021/06/21 06:06:02;;;;;;;12.77;4.50;;;18.80;99.90;;;;;;5114782;28;20593;-65
2021/06/21 06:08:29;;;;;;;10.70;4.03;;;18.90;99.90;;;;;;5113836;28;21182;-65
2021/06/21 06:10:55;;;;;;;9.73;3.60;;;19.00;99.90;;;;;;5114904;28;20604;-66
2021/06/21 06:13:21;;;;;;;10.63;3.93;;;19.10;99.90;;;;;;5113750;28;20631;-66
2021/06/21 06:15:48;;;;;;;15.43;4.27;;;19.20;99.90;;;;;;5114606;28;20601;-66
2021/06/21 06:18:15;;;;;;;11.10;4.03;;;19.20;99.90;;;;;;5114322;28;20607;-66
2021/06/21 06:20:42;;;;;;;11.43;3.83;;;19.30;99.90;;;;;;5114469;28;20607;-65
2021/06/21 06:23:08;;;;;;;11.20;4.10;;;19.30;99.90;;;;;;5114436;28;20596;-65
2021/06/21 06:25:38;;;;;;;9.43;3.23;;;19.30;99.90;;;;;;5114503;28;20696;-65
2021/06/21 06:28:05;;;;;;;13.70;3.37;;;19.30;99.90;;;;;;5114237;28;20593;-65
2021/06/21 06:30:32;;;;;;;15.00;4.23;;;19.40;99.90;;;;;;5113872;28;20623;-65
2021/06/21 06:32:59;;;;;;;9.67;3.63;;;19.30;99.90;;;;;;5113638;28;21181;-65
2021/06/21 06:35:25;;;;;;;12.67;4.63;;;19.30;99.90;;;;;;5114019;28;20635;-65
2021/06/21 06:37:52;;;;;;;7.60;3.13;;;19.40;99.90;;;;;;5114030;28;20596;-65
2021/06/21 06:40:18;;;;;;;5.90;3.37;;;19.40;99.90;;;;;;5114253;28;20640;-65
2021/06/21 06:42:46;;;;;;;12.00;4.27;;;19.40;99.90;;;;;;5113943;28;20597;-65
2021/06/21 06:45:13;;;;;;;10.57;4.23;;;19.40;99.90;;;;;;5113674;28;20974;-65
2021/06/21 06:47:39;;;;;;;8.40;4.77;;;19.40;99.90;;;;;;5113833;28;20620;-66
2021/06/21 06:50:08;;;;;;;10.30;3.87;;;19.40;99.90;;;;;;5113811;28;21061;-66
2021/06/21 06:52:34;;;;;;;8.57;4.27;;;19.30;99.90;;;;;;5113635;28;20616;-66
2021/06/21 06:57:35;;;;;;;13.80;3.97;;;19.70;99.90;;;;;;5113675;28;20565;-66
2021/06/21 07:00:06;;;;;;;11.20;3.70;;;19.70;99.90;;;;;;5113698;28;20604;-65
2021/06/21 07:02:33;;;;;;;5.97;3.00;;;19.80;99.90;;;;;;5113728;28;20576;-66
2021/06/21 07:05:04;;;;;;;10.90;3.90;;;19.80;99.90;;;;;;5094846;28;20628;-66
2021/06/21 07:07:31;;;;;;;10.07;3.50;;;20.00;99.90;;;;;;5095097;28;21158;-66
2021/06/21 07:09:58;;;;;;;8.70;3.37;;;20.20;99.90;;;;;;5113717;28;20640;-66
2021/06/21 07:12:24;;;;;;;8.73;4.33;;;20.30;99.90;;;;;;5113800;28;20602;-66
2021/06/21 07:14:50;;;;;;;8.10;3.80;;;20.20;99.90;;;;;;5113463;28;20644;-66
2021/06/21 07:17:17;;;;;;;9.73;3.30;;;20.10;99.90;;;;;;5113223;28;20628;-66
2021/06/21 07:19:43;;;;;;;8.23;3.30;;;20.20;99.90;;;;;;5113342;28;20616;-66
2021/06/21 07:22:10;;;;;;;11.63;4.07;;;20.40;99.90;;;;;;5113124;28;21146;-67
2021/06/21 07:24:36;;;;;;;4.80;2.93;;;20.50;99.90;;;;;;5113255;28;20950;-67
2021/06/21 07:27:04;;;;;;;9.57;3.47;;;20.60;99.90;;;;;;5112909;28;20988;-66
2021/06/21 07:29:31;;;;;;;6.20;2.93;;;20.70;99.90;;;;;;5112890;28;21043;-67
2021/06/21 07:31:57;;;;;;;9.70;3.27;;;20.80;99.90;;;;;;5095151;28;20604;-67
2021/06/21 07:34:24;;;;;;;11.70;3.80;;;20.50;99.90;;;;;;5113791;28;20596;-66
2021/06/21 07:36:50;;;;;;;12.13;3.80;;;20.50;99.90;;;;;;5113755;28;20596;-66
2021/06/21 07:39:16;;;;;;;6.70;2.87;;;20.70;99.90;;;;;;5113604;28;20600;-67
2021/06/21 07:41:43;;;;;;;8.90;2.87;;;20.50;99.90;;;;;;5113608;28;21188;-67
2021/06/21 07:44:10;;;;;;;6.00;2.50;;;20.60;99.90;;;;;;5113452;28;20608;-72
2021/06/21 07:46:36;;;;;;;12.10;3.80;;;20.90;99.90;;;;;;5113383;28;20970;-67
2021/06/21 07:49:03;;;;;;;6.73;2.40;;;20.80;99.90;;;;;;5112599;28;20656;-66
2021/06/21 07:51:32;;;;;;;8.17;3.00;;;20.90;99.90;;;;;;5112964;28;20685;-66
2021/06/21 07:53:59;;;;;;;4.83;2.33;;;21.10;99.90;;;;;;5112603;28;20632;-66
2021/06/21 07:56:25;;;;;;;10.33;2.50;;;21.20;99.90;;;;;;5113504;28;21140;-66
2021/06/21 07:58:52;;;;;;;9.00;3.10;;;21.40;99.90;;;;;;5113276;28;20600;-66
2021/06/21 08:01:18;;;;;;;8.77;2.53;;;21.40;99.90;;;;;;5113047;28;20639;-66
2021/06/21 08:03:45;;;;;;;5.00;2.40;;;21.40;99.90;;;;;;5113203;28;20934;-66
2021/06/21 08:06:11;;;;;;;6.03;2.40;;;21.60;99.90;;;;;;5113157;28;20601;-66
2021/06/21 08:08:39;;;;;;;6.60;2.67;;;21.50;99.90;;;;;;5113047;28;20636;-66
2021/06/21 08:11:08;;;;;;;9.07;2.27;;;21.50;99.90;;;;;;5115216;28;20672;-66
2021/06/21 08:13:34;;;;;;;7.40;2.20;;;21.50;99.90;;;;;;5116906;28;20645;-66
2021/06/21 08:16:01;;;;;;;6.43;2.10;;;21.70;99.90;;;;;;5116594;28;20970;-66
2021/06/21 08:18:27;;;;;;;4.70;2.83;;;21.90;99.90;;;;;;5116652;28;20673;-66
2021/06/21 08:20:54;;;;;;;4.83;2.27;;;21.90;99.90;;;;;;5116728;28;20600;-66
2021/06/21 08:23:21;;;;;;;4.97;2.43;;;21.90;99.90;;;;;;5116599;28;20596;-66
2021/06/21 08:25:47;;;;;;;4.50;2.07;;;22.10;99.90;;;;;;5116596;28;20607;-66
2021/06/21 08:28:14;;;;;;;4.87;2.77;;;21.90;99.90;;;;;;5116509;28;20600;-66
2021/06/21 08:30:42;;;;;;;4.17;2.53;;;22.30;99.90;;;;;;5116563;28;21033;-66
2021/06/21 08:33:09;;;;;;;5.70;1.77;;;22.20;99.90;;;;;;5116575;28;20603;-66
2021/06/21 08:35:36;;;;;;;4.80;1.90;;;22.20;99.90;;;;;;5116628;28;20928;-66
2021/06/21 08:38:04;;;;;;;2.23;1.90;;;22.60;99.90;;;;;;5116045;28;20974;-66
2021/06/21 08:40:33;;;;;;;9.20;2.57;;;22.60;99.90;;;;;;5116321;27;20738;-66
2021/06/21 08:43:01;;;;;;;7.60;2.97;;;22.80;99.90;;;;;;5098337;28;20628;-66
2021/06/21 08:45:30;;;;;;;7.23;2.00;;;22.70;99.90;;;;;;5116371;28;20608;-66
2021/06/21 08:47:57;;;;;;;4.87;2.37;;;22.60;99.90;;;;;;5116202;28;20627;-66
2021/06/21 08:50:25;;;;;;;10.87;2.90;;;22.70;97.00;;;;;;5116085;28;20656;-66
2021/06/21 08:52:52;;;;;;;2.40;2.00;;;22.50;75.60;;;;;;5116016;28;20600;-67
2021/06/21 08:55:18;;;;;;;6.63;1.93;;;22.50;99.90;;;;;;5115540;28;20619;-67
2021/06/21 08:57:47;;;;;;;2.83;2.27;;;22.80;52.20;;;;;;5116073;28;20599;-66
2021/06/21 09:00:17;;;;;;;6.90;2.10;;;22.60;95.00;;;;;;5115988;28;20611;-66
2021/06/21 09:02:46;;;;;;;6.03;2.67;;;22.70;99.90;;;;;;5115143;28;20636;-66
2021/06/21 09:05:12;;;;;;;3.40;2.23;;;22.70;90.60;;;;;;5115490;28;20971;-66
2021/06/21 09:07:39;;;;;;;2.93;1.93;;;23.00;92.30;;;;;;5107986;28;20621;-66
2021/06/21 09:10:20;;;;;;;6.80;2.07;;;23.10;73.50;;;;;;5108492;28;20648;-67
2021/06/21 09:12:57;;;;;;;4.40;2.13;;;23.20;86.10;;;;;;5102575;28;20597;-67
2021/06/21 09:15:30;;;;;;;2.77;2.27;;;23.40;25.50;;;;;;5123796;27;21140;-65
2021/06/21 09:17:57;;;;;;;6.53;2.33;;;23.40;7.30;;;;;;5110355;27;20570;-65
2021/06/21 09:20:23;;;;;;;3.57;1.97;;;23.40;51.30;;;;;;5088549;28;21168;-67
2021/06/21 09:22:57;;;;;;;2.80;2.00;;;23.30;1.00;;;;;;5114713;28;20630;-65
2021/06/21 09:25:27;;;;;;;3.00;1.93;;;23.60;1.00;;;;;;5114896;28;20598;-66
2021/06/21 09:28:01;;;;;;;2.47;2.23;;;23.40;1.00;;;;;;5114329;28;20620;-67
2021/06/21 09:30:29;;;;;;;2.57;2.20;;;23.20;1.00;;;;;;5114935;28;20616;-66
2021/06/21 09:32:58;;;;;;;6.50;1.97;;;23.60;1.00;;;;;;5114827;28;20609;-66
2021/06/21 09:35:30;;;;;;;2.50;1.97;;;23.80;1.00;;;;;;5114818;28;20682;-66
2021/06/21 09:37:59;;;;;;;2.87;1.83;;;23.70;1.00;;;;;;5113933;28;20677;-66
2021/06/21 09:40:30;;;;;;;9.77;2.07;;;24.40;1.00;;;;;;5114653;28;20644;-66
2021/06/21 09:42:58;;;;;;;7.23;2.23;;;24.30;1.00;;;;;;5114444;28;20632;-66
2021/06/21 09:45:26;;;;;;;3.60;2.00;;;24.10;1.00;;;;;;5114556;28;21169;-66
2021/06/21 09:47:53;;;;;;;2.70;2.03;;;24.30;1.00;;;;;;5114477;28;20628;-65
2021/06/21 09:50:27;;;;;;;4.50;1.90;;;24.40;1.00;;;;;;5113846;28;20663;-65
2021/06/21 09:52:57;;;;;;;3.70;2.10;;;24.20;1.00;;;;;;5114036;28;20620;-65
2021/06/21 09:55:26;;;;;;;4.23;1.83;;;24.10;1.00;;;;;;5114124;28;20620;-66
2021/06/21 09:58:25;;;;;;;2.60;1.90;;;24.30;1.00;;;;;;5114209;28;20624;-66
2021/06/21 10:01:06;;;;;;;2.07;1.87;;;24.30;1.00;;;;;;5049375;28;20633;-66
2021/06/21 10:03:40;;;;;;;3.90;2.00;;;24.30;1.00;;;;;;5100431;28;20591;-66
2021/06/21 10:06:08;;;;;;;4.70;2.03;;;24.40;1.00;;;;;;5114244;28;20587;-66
2021/06/21 10:08:52;;;;;;;2.10;1.60;;;24.80;1.00;;;;;;5114281;28;21135;-65
2021/06/21 10:11:38;;;;;;;4.00;2.07;;;25.10;1.00;;;;;;5113557;28;20613;-65
2021/06/21 10:14:16;;;;;;;4.00;1.67;;;24.50;1.00;;;;;;5114195;28;20630;-65
2021/06/21 10:16:45;;;;;;;3.93;1.60;;;24.60;1.00;;;;;;5114077;28;20584;-65
2021/06/21 10:19:13;;;;;;;1.90;1.60;;;25.00;1.00;;;;;;5113916;28;20627;-65
2021/06/21 10:21:42;;;;;;;3.10;1.60;;;24.80;1.00;;;;;;5114189;28;20616;-66
2021/06/21 10:24:09;;;;;;;3.20;1.57;;;25.20;1.00;;;;;;5114392;28;20588;-65
2021/06/21 10:26:38;;;;;;;4.73;1.73;;;24.90;1.00;;;;;;5096319;28;20616;-65
2021/06/21 10:29:05;;;;;;;4.10;1.60;;;25.30;1.00;;;;;;5114276;28;20638;-65
2021/06/21 10:31:32;;;;;;;1.80;1.70;;;25.20;1.00;;;;;;5114389;28;20590;-65
2021/06/21 10:34:04;;;;;;;2.30;1.53;;;25.10;1.00;;;;;;5113650;28;20945;-65
2021/06/21 10:36:48;;;;;;;1.70;1.60;;;25.50;1.00;;;;;;5111785;27;20571;-66
2021/06/21 10:39:17;;;;;;;1.70;1.60;;;25.70;1.00;;;;;;5134675;27;20559;-66
2021/06/21 10:42:04;;;;;;;4.67;2.10;;;24.90;1.00;;;;;;5134705;27;20710;-65
2021/06/21 10:44:44;;;;;;;1.90;1.80;;;24.90;1.00;;;;;;5091901;27;20628;-65
2021/06/21 10:47:35;;;;;;;1.60;1.50;;;25.40;1.00;;;;;;5113977;28;20564;-66
2021/06/21 10:50:16;;;;;;;3.20;2.00;;;25.30;1.00;;;;;;5106850;28;21121;-66
2021/06/21 10:52:53;;;;;;;2.03;1.80;;;25.50;1.00;;;;;;5107413;28;20608;-66
2021/06/21 10:55:55;;;;;;;2.73;1.37;;;26.10;1.00;;;;;;5113913;28;21020;-67
2021/06/21 10:58:20;;;;;;;1.70;1.60;;;25.60;1.00;;;;;;5109360;28;20635;-65
2021/06/21 11:00:52;;;;;;;3.33;1.77;;;25.50;1.00;;;;;;5113783;28;21116;-65
2021/06/21 11:03:29;;;;;;;6.70;2.00;;;25.80;1.00;;;;;;5113217;28;20671;-65
2021/06/21 11:06:05;;;;;;;4.40;1.83;;;25.40;1.00;;;;;;5112854;28;20731;-66
2021/06/21 11:08:34;;;;;;;2.50;1.50;;;25.80;1.00;;;;;;5113103;28;21118;-66
2021/06/21 11:11:01;;;;;;;2.33;1.50;;;26.20;99.90;;;;;;5113196;28;20656;-66
2021/06/21 11:13:36;;;;;;;2.20;1.57;;;26.20;99.90;;;;;;5113112;28;20612;-65
2021/06/21 11:16:20;;;;;;;5.67;1.80;;;26.40;99.90;;;;;;5112914;28;20615;-65
2021/06/21 11:18:48;;;;;;;4.20;1.60;;;26.90;99.90;;;;;;5113069;28;20627;-65
2021/06/21 11:21:19;;;;;;;4.80;1.73;;;26.30;1.00;;;;;;5113442;28;20638;-66
2021/06/21 11:23:49;;;;;;;2.20;1.40;;;26.10;99.90;;;;;;5095118;28;20673;-65
2021/06/21 11:26:16;;;;;;;2.70;1.60;;;26.70;99.90;;;;;;5113669;28;20627;-65
2021/06/21 11:28:45;;;;;;;2.30;1.87;;;26.60;99.90;;;;;;5112428;28;21154;-65
2021/06/21 11:31:27;;;;;;;1.60;1.47;;;27.40;99.90;;;;;;5098480;28;21008;-65
2021/06/21 11:34:01;;;;;;;2.37;1.70;;;26.90;99.90;;;;;;5112642;28;20592;-65
2021/06/21 11:36:46;;;;;;;2.13;1.50;;;27.20;99.90;;;;;;5093221;28;20553;-66
2021/06/21 11:39:22;;;;;;;2.60;1.60;;;27.40;99.90;;;;;;5093072;28;20573;-66
2021/06/21 11:41:51;;;;;;;2.23;1.43;;;27.30;99.90;;;;;;5092421;28;20641;-65
2021/06/21 11:44:36;;;;;;;8.23;2.00;;;26.60;99.90;;;;;;5093166;28;20617;-66
2021/06/21 11:47:28;;;;;;;1.60;1.50;;;27.00;99.90;;;;;;5096992;28;20684;-66
2021/06/21 11:50:12;;;;;;;3.50;1.67;;;28.40;99.90;;;;;;5096009;28;21142;-65
2021/06/21 11:52:39;;;;;;;4.13;1.60;;;28.40;99.90;;;;;;5096937;28;20622;-65
2021/06/21 11:55:17;;;;;;;1.77;1.67;;;28.10;99.90;;;;;;5096934;28;20604;-65
2021/06/21 11:57:46;;;;;;;2.13;1.90;;;27.90;99.90;;;;;;5096853;28;20557;-65
2021/06/21 12:00:17;;;;;;;2.23;1.87;;;28.40;99.90;;;;;;5096844;28;20598;-66
2021/06/21 12:02:43;;;;;;;3.20;2.00;;;28.80;99.90;;;;;;5096997;28;20652;-65
2021/06/21 12:05:15;;;;;;;1.97;1.70;;;28.60;99.90;;;;;;5096619;28;20961;-65
2021/06/21 12:07:44;;;;;;;3.80;1.90;;;29.80;99.90;;;;;;5096444;28;20720;-65
2021/06/21 12:10:16;;;;;;;1.80;1.70;;;29.20;99.90;;;;;;5095989;28;20663;-65
2021/06/21 12:12:48;;;;;;;1.97;1.77;;;30.30;99.90;;;;;;5095944;28;21043;-65
2021/06/21 12:15:26;;;;;;;3.10;2.00;;;29.60;99.90;;;;;;5096472;28;21094;-65
2021/06/21 12:17:54;;;;;;;1.57;1.43;;;28.80;99.90;;;;;;5096258;28;20648;-65
2021/06/21 12:20:21;;;;;;;4.60;1.83;;;28.70;99.90;;;;;;5095749;28;20686;-65
2021/06/21 12:22:59;;;;;;;2.20;1.57;;;28.80;99.90;;;;;;5096243;28;20612;-65
2021/06/21 12:25:32;;;;;;;2.83;1.63;;;29.60;99.90;;;;;;5096008;28;20604;-65
2021/06/21 12:28:21;;;;;;;3.67;1.47;;;30.30;99.90;;;;;;5095876;28;20632;-66
2021/06/21 12:31:06;;;;;;;1.70;1.60;;;29.10;99.90;;;;;;5095924;28;20668;-66
2021/06/21 12:33:33;;;;;;;12.00;1.80;;;29.50;99.90;;;;;;5096254;28;20557;-66
2021/06/21 12:36:20;;;;;;;3.23;2.00;;;29.90;99.90;;;;;;5095573;28;20620;-66
2021/06/21 12:38:59;;;;;;;2.43;1.40;;;30.50;99.90;;;;;;5096091;28;20620;-66
2021/06/21 12:41:32;;;;;;;2.43;1.60;;;30.20;99.90;;;;;;5095185;28;20656;-67
2021/06/21 12:44:04;;;;;;;4.63;2.00;;;32.30;99.90;;;;;;5111600;28;20581;-66
2021/06/21 12:46:44;;;;;;;2.33;2.13;;;31.00;99.90;;;;;;5115502;28;20635;-65
2021/06/21 12:49:15;;;;;;;2.20;1.40;;;31.20;99.90;;;;;;5115041;28;21014;-68
2021/06/21 12:51:43;;;;;;;2.00;1.90;;;31.80;99.90;;;;;;5097373;28;20616;-66
2021/06/21 12:54:17;;;;;;;2.87;1.73;;;31.90;99.90;;;;;;5115401;28;20608;-66
2021/06/21 12:56:49;;;;;;;2.20;2.00;;;31.00;99.90;;;;;;5115590;28;21094;-66
2021/06/21 12:59:33;;;;;;;2.03;1.93;;;31.20;99.90;;;;;;5115926;28;20609;-66